Time;durP1;ratioP1;P1;durP2;ratioP2;P2;SDS_P1;SDS_P2;PMS_P1;PMS_P2;Temp;Humidity;BMP_temperature;BMP_pressure;BME280_temperature;BME280_humidity;BME280_pressure;Samples;Min_cycle;Max_cycle;Signal;HPM_P1;HPM_P2
2022/12/01 00:01:26;;;;;;;42.50;20.60;;;;;;;;;;5050239;28;20184;-83
2022/12/01 00:03:52;;;;;;;40.03;20.23;;;;;;;;;;5058935;28;20224;-82
2022/12/01 00:06:18;;;;;;;49.67;23.07;;;;;;;;;;5060015;28;20255;-83
2022/12/01 00:10:24;;;;;;;46.23;22.17;;;;;;;;;;5037934;28;20664;-83
2022/12/01 00:11:30;;;;;;;39.77;19.47;;;;;;;;;;5058257;28;20227;-82
2022/12/01 00:13:55;;;;;;;45.43;21.43;;;;;;;;;;5054767;28;20216;-82
2022/12/01 00:16:20;;;;;;;42.13;20.40;;;;;;;;;;5058661;28;20189;-83
2022/12/01 00:18:48;;;;;;;40.70;20.30;;;;;;;;;;5054867;28;20192;-83
2022/12/01 00:21:14;;;;;;;48.67;21.70;;;;;;;;;;5053603;28;20178;-83
2022/12/01 00:23:42;;;;;;;45.27;20.73;;;;;;;;;;5061028;28;20251;-82
2022/12/01 00:26:07;;;;;;;42.90;19.97;;;;;;;;;;5060040;28;20205;-83
2022/12/01 00:28:32;;;;;;;40.77;20.33;;;;;;;;;;5059474;28;20241;-82
2022/12/01 00:30:58;;;;;;;45.27;21.23;;;;;;;;;;5058090;28;20215;-82
2022/12/01 00:33:24;;;;;;;48.07;21.83;;;;;;;;;;5059137;28;20205;-82
2022/12/01 00:35:49;;;;;;;50.60;22.37;;;;;;;;;;5059323;28;20181;-81
2022/12/01 00:38:14;;;;;;;47.20;23.43;;;;;;;;;;5036944;28;20182;-82
2022/12/01 00:40:39;;;;;;;46.23;23.10;;;;;;;;;;5040862;28;20169;-81
2022/12/01 00:43:04;;;;;;;48.70;22.20;;;;;;;;;;5060362;28;20292;-82
2022/12/01 00:45:30;;;;;;;47.17;22.97;;;;;;;;;;5045162;28;20197;-82
2022/12/01 00:47:55;;;;;;;52.20;22.70;;;;;;;;;;5044338;28;20183;-82
2022/12/01 00:50:20;;;;;;;44.83;21.67;;;;;;;;;;5061921;28;20178;-82
2022/12/01 00:52:45;;;;;;;50.90;23.63;;;;;;;;;;5062929;28;20229;-82
2022/12/01 00:55:10;;;;;;;52.50;22.77;;;;;;;;;;5056073;28;20728;-82
2022/12/01 00:57:35;;;;;;;51.53;23.40;;;;;;;;;;5047126;28;20192;-82
2022/12/01 01:00:01;;;;;;;50.87;22.23;;;;;;;;;;5065561;28;20299;-81
2022/12/01 01:02:26;;;;;;;55.57;23.80;;;;;;;;;;5058054;28;20778;-82
2022/12/01 01:04:51;;;;;;;50.50;21.10;;;;;;;;;;5044566;28;20197;-82
2022/12/01 01:07:16;;;;;;;56.33;22.80;;;;;;;;;;5062399;28;20178;-82
2022/12/01 01:09:41;;;;;;;46.80;22.07;;;;;;;;;;5063189;28;20166;-81
2022/12/01 01:12:07;;;;;;;47.70;23.17;;;;;;;;;;5061803;28;20186;-82
2022/12/01 01:14:32;;;;;;;43.47;19.97;;;;;;;;;;5064988;28;20601;-82
2022/12/01 01:16:57;;;;;;;48.30;21.10;;;;;;;;;;5061416;28;20603;-82
2022/12/01 01:19:23;;;;;;;54.40;23.77;;;;;;;;;;5058708;28;20181;-82
2022/12/01 01:21:48;;;;;;;50.37;23.23;;;;;;;;;;5040409;28;20212;-83
2022/12/01 01:24:13;;;;;;;51.57;22.60;;;;;;;;;;5046580;28;20272;-82
2022/12/01 01:26:38;;;;;;;53.83;24.47;;;;;;;;;;5060900;28;20273;-82
2022/12/01 01:29:06;;;;;;;57.03;23.50;;;;;;;;;;5066042;28;20189;-82
2022/12/01 01:31:31;;;;;;;58.87;23.37;;;;;;;;;;5064165;28;20165;-82
2022/12/01 01:33:57;;;;;;;47.40;22.73;;;;;;;;;;5056843;28;20243;-82
2022/12/01 01:36:23;;;;;;;49.23;22.33;;;;;;;;;;5053967;28;20194;-81
2022/12/01 01:38:52;;;;;;;54.20;22.93;;;;;;;;;;5037083;28;20177;-82
2022/12/01 01:41:18;;;;;;;59.47;24.03;;;;;;;;;;5063992;28;20218;-82
2022/12/01 01:43:46;;;;;;;58.47;24.70;;;;;;;;;;5058236;28;20537;-82
2022/12/01 01:46:13;;;;;;;56.03;23.37;;;;;;;;;;5059472;28;20533;-81
2022/12/01 01:48:40;;;;;;;57.90;23.10;;;;;;;;;;5063749;28;20252;-82
2022/12/01 01:51:06;;;;;;;56.30;24.73;;;;;;;;;;5041005;28;20178;-82
2022/12/01 01:53:31;;;;;;;53.73;22.83;;;;;;;;;;5056429;28;20194;-82
2022/12/01 01:55:57;;;;;;;51.47;22.77;;;;;;;;;;5058478;28;20204;-82
2022/12/01 01:58:22;;;;;;;49.83;22.17;;;;;;;;;;5046185;28;20203;-82
2022/12/01 02:00:48;;;;;;;50.57;23.70;;;;;;;;;;5053916;28;20174;-81
2022/12/01 02:03:14;;;;;;;58.70;25.33;;;;;;;;;;5046503;28;20197;-81
2022/12/01 02:05:40;;;;;;;53.00;22.67;;;;;;;;;;5064032;28;20281;-82
2022/12/01 02:08:11;;;;;;;55.50;24.27;;;;;;;;;;5033310;28;20170;-82
2022/12/01 02:10:55;;;;;;;56.00;23.63;;;;;;;;;;5062435;28;20182;-81
2022/12/01 02:13:41;;;;;;;56.63;24.47;;;;;;;;;;5046888;28;20213;-82
2022/12/01 02:16:25;;;;;;;51.60;22.93;;;;;;;;;;5063534;28;20610;-82
2022/12/01 02:18:58;;;;;;;57.33;22.80;;;;;;;;;;5063815;28;20180;-82
2022/12/01 02:21:34;;;;;;;62.83;24.10;;;;;;;;;;5059173;28;20705;-82
2022/12/01 02:24:03;;;;;;;62.77;26.50;;;;;;;;;;5067822;28;20197;-81
2022/12/01 02:26:34;;;;;;;58.67;23.73;;;;;;;;;;5062747;28;20694;-82
2022/12/01 02:29:05;;;;;;;56.43;24.03;;;;;;;;;;5044482;28;20177;-82
2022/12/01 02:31:41;;;;;;;56.50;24.07;;;;;;;;;;5064501;28;20173;-82
2022/12/01 02:34:15;;;;;;;68.10;25.10;;;;;;;;;;5065448;28;20221;-82
2022/12/01 02:36:40;;;;;;;58.97;24.40;;;;;;;;;;5064627;28;20192;-82
2022/12/01 02:39:09;;;;;;;59.57;23.40;;;;;;;;;;5042123;28;20186;-82
2022/12/01 02:41:44;;;;;;;53.37;24.73;;;;;;;;;;5038499;28;20727;-82
2022/12/01 02:44:17;;;;;;;54.03;24.37;;;;;;;;;;5037065;28;20197;-80
2022/12/01 02:46:48;;;;;;;56.27;25.10;;;;;;;;;;5048681;28;20212;-83
2022/12/01 02:49:15;;;;;;;55.47;23.80;;;;;;;;;;5053103;28;20608;-81
2022/12/01 02:51:43;;;;;;;59.27;24.53;;;;;;;;;;5041759;28;20693;-82
2022/12/01 02:54:08;;;;;;;55.73;22.80;;;;;;;;;;5039677;28;20281;-82
2022/12/01 02:56:33;;;;;;;52.43;23.50;;;;;;;;;;5057754;28;20205;-80
2022/12/01 02:58:59;;;;;;;51.40;22.33;;;;;;;;;;5060676;28;20177;-80
2022/12/01 03:01:24;;;;;;;60.10;24.23;;;;;;;;;;5060120;28;20186;-82
2022/12/01 03:03:49;;;;;;;54.80;24.03;;;;;;;;;;5053093;28;20209;-83
2022/12/01 03:06:20;;;;;;;54.00;23.97;;;;;;;;;;5054518;28;20197;-81
2022/12/01 03:08:45;;;;;;;58.60;23.93;;;;;;;;;;5049103;28;20190;-83
2022/12/01 03:11:25;;;;;;;54.93;25.77;;;;;;;;;;5058850;28;20180;-81
2022/12/01 03:14:11;;;;;;;59.83;25.13;;;;;;;;;;5060918;28;20189;-82
2022/12/01 03:16:36;;;;;;;61.93;25.73;;;;;;;;;;5032070;28;20196;-82
2022/12/01 03:19:05;;;;;;;63.13;27.00;;;;;;;;;;5062346;28;20245;-82
2022/12/01 03:21:34;;;;;;;60.47;25.17;;;;;;;;;;5042775;28;20185;-82
2022/12/01 03:24:09;;;;;;;58.13;24.53;;;;;;;;;;5061873;28;20596;-83
2022/12/01 03:26:36;;;;;;;59.60;25.27;;;;;;;;;;5058066;28;20251;-82
2022/12/01 03:29:05;;;;;;;69.37;28.00;;;;;;;;;;5061752;28;20178;-82
2022/12/01 03:31:31;;;;;;;68.23;26.40;;;;;;;;;;5041698;28;20217;-82
2022/12/01 03:34:06;;;;;;;62.40;25.13;;;;;;;;;;5032957;28;20267;-83
2022/12/01 03:36:38;;;;;;;59.00;25.63;;;;;;;;;;5039920;28;20705;-80
2022/12/01 03:39:07;;;;;;;65.40;26.53;;;;;;;;;;5062568;28;20239;-83
2022/12/01 03:41:37;;;;;;;68.27;26.53;;;;;;;;;;5056367;28;20192;-82
2022/12/01 03:44:06;;;;;;;67.33;25.77;;;;;;;;;;5059835;28;20221;-82
2022/12/01 03:46:39;;;;;;;66.40;29.30;;;;;;;;;;5060654;28;20197;-83
2022/12/01 03:49:07;;;;;;;63.23;24.03;;;;;;;;;;5057699;28;20174;-83
2022/12/01 03:51:42;;;;;;;68.47;26.13;;;;;;;;;;5040901;28;20201;-82
2022/12/01 03:54:11;;;;;;;65.60;26.20;;;;;;;;;;5063030;28;20197;-81
2022/12/01 03:56:42;;;;;;;74.83;26.83;;;;;;;;;;5060114;28;20205;-82
2022/12/01 03:59:07;;;;;;;62.80;25.43;;;;;;;;;;5061214;28;20212;-82
2022/12/01 04:01:33;;;;;;;69.43;26.60;;;;;;;;;;5049546;28;20686;-82
2022/12/01 04:04:09;;;;;;;60.77;26.07;;;;;;;;;;5062533;28;20216;-81
2022/12/01 04:06:34;;;;;;;69.33;25.67;;;;;;;;;;5042107;28;20228;-82
2022/12/01 04:08:59;;;;;;;72.90;25.27;;;;;;;;;;5036117;28;20591;-82
2022/12/01 04:14:09;;;;;;;72.37;28.47;;;;;;;;;;5055039;28;20211;-82
2022/12/01 04:16:34;;;;;;;72.17;26.67;;;;;;;;;;5060829;28;20619;-82
2022/12/01 04:18:59;;;;;;;68.50;27.07;;;;;;;;;;5058337;28;20387;-82
2022/12/01 04:21:24;;;;;;;77.60;27.77;;;;;;;;;;5063903;28;20255;-83
2022/12/01 04:23:59;;;;;;;63.30;25.10;;;;;;;;;;5044576;28;20201;-82
2022/12/01 04:26:24;;;;;;;74.13;26.77;;;;;;;;;;5044085;28;20205;-82
2022/12/01 04:28:49;;;;;;;66.87;27.03;;;;;;;;;;5067973;28;20232;-82
2022/12/01 04:31:14;;;;;;;60.37;26.70;;;;;;;;;;5052258;28;20196;-83
2022/12/01 04:33:39;;;;;;;73.97;26.90;;;;;;;;;;5060102;28;20296;-82
2022/12/01 04:36:05;;;;;;;66.37;26.30;;;;;;;;;;5061567;28;20241;-83
2022/12/01 04:38:30;;;;;;;80.83;27.63;;;;;;;;;;5063286;28;20189;-82
2022/12/01 04:40:55;;;;;;;69.00;27.03;;;;;;;;;;5041799;28;20574;-82
2022/12/01 04:43:20;;;;;;;68.10;27.43;;;;;;;;;;5060066;28;20207;-80
2022/12/01 04:45:46;;;;;;;73.97;26.03;;;;;;;;;;5066055;28;20189;-82
2022/12/01 04:48:11;;;;;;;70.27;26.80;;;;;;;;;;5061236;28;20537;-82
2022/12/01 04:50:36;;;;;;;71.50;28.10;;;;;;;;;;5063455;28;20182;-83
2022/12/01 04:53:03;;;;;;;72.43;26.50;;;;;;;;;;5056277;28;22035;-82
2022/12/01 04:55:28;;;;;;;75.10;27.27;;;;;;;;;;5060638;28;20197;-81
2022/12/01 04:57:53;;;;;;;71.50;26.20;;;;;;;;;;5045127;28;20668;-82
2022/12/01 05:00:18;;;;;;;71.73;28.00;;;;;;;;;;5058988;28;20204;-82
2022/12/01 05:02:44;;;;;;;78.07;28.57;;;;;;;;;;5059511;28;20169;-82
2022/12/01 05:05:10;;;;;;;69.00;27.90;;;;;;;;;;5040534;28;20201;-82
2022/12/01 05:07:35;;;;;;;64.37;26.53;;;;;;;;;;5057672;28;20174;-83
2022/12/01 05:10:00;;;;;;;63.00;25.47;;;;;;;;;;5051684;28;20205;-83
2022/12/01 05:12:25;;;;;;;72.53;26.90;;;;;;;;;;5061294;28;20174;-82
2022/12/01 05:14:51;;;;;;;62.83;26.50;;;;;;;;;;5042598;28;20221;-82
2022/12/01 05:17:16;;;;;;;74.40;25.47;;;;;;;;;;5061833;28;20184;-82
2022/12/01 05:22:25;;;;;;;62.70;24.43;;;;;;;;;;5065862;28;20324;-83
2022/12/01 05:24:50;;;;;;;63.87;24.97;;;;;;;;;;5059021;28;20225;-83
2022/12/01 05:27:15;;;;;;;68.43;26.00;;;;;;;;;;5043083;28;20212;-81
2022/12/01 05:29:40;;;;;;;66.23;26.73;;;;;;;;;;5064867;28;20194;-81
2022/12/01 05:32:06;;;;;;;68.67;24.73;;;;;;;;;;5040346;28;20179;-81
2022/12/01 05:34:31;;;;;;;69.50;25.10;;;;;;;;;;5065434;28;20203;-80
2022/12/01 05:36:56;;;;;;;65.87;23.87;;;;;;;;;;5046925;28;20174;-83
2022/12/01 05:39:21;;;;;;;62.63;24.60;;;;;;;;;;5049590;28;20192;-81
2022/12/01 05:41:46;;;;;;;61.63;26.17;;;;;;;;;;5066162;28;20239;-80
2022/12/01 05:44:12;;;;;;;62.73;24.90;;;;;;;;;;5064720;28;20221;-81
2022/12/01 05:46:37;;;;;;;59.10;23.97;;;;;;;;;;5049274;28;20216;-81
2022/12/01 05:49:02;;;;;;;58.63;23.83;;;;;;;;;;5066846;28;20193;-80
2022/12/01 05:51:27;;;;;;;72.17;26.80;;;;;;;;;;5046123;28;20601;-80
2022/12/01 05:53:52;;;;;;;63.83;26.43;;;;;;;;;;5065173;28;20199;-81
2022/12/01 05:56:18;;;;;;;67.10;26.80;;;;;;;;;;5063658;28;20182;-80
2022/12/01 05:58:43;;;;;;;60.87;25.77;;;;;;;;;;5047692;28;20235;-81
2022/12/01 06:01:08;;;;;;;69.23;25.20;;;;;;;;;;5062173;28;20174;-81
2022/12/01 06:03:33;;;;;;;72.77;26.03;;;;;;;;;;5060908;28;20280;-81
2022/12/01 06:05:59;;;;;;;60.67;24.90;;;;;;;;;;5062254;28;20209;-81
2022/12/01 06:08:24;;;;;;;63.37;23.70;;;;;;;;;;5057446;28;20545;-81
2022/12/01 06:10:50;;;;;;;69.53;25.43;;;;;;;;;;5061173;28;20170;-79
2022/12/01 06:13:15;;;;;;;61.03;23.33;;;;;;;;;;5060573;28;20194;-80
2022/12/01 06:15:40;;;;;;;64.90;24.87;;;;;;;;;;5050295;28;20253;-81
2022/12/01 06:18:05;;;;;;;58.10;24.03;;;;;;;;;;5064494;28;20187;-80
2022/12/01 06:20:31;;;;;;;70.10;25.70;;;;;;;;;;5065018;28;20181;-81
2022/12/01 06:22:58;;;;;;;67.47;24.93;;;;;;;;;;5063586;28;20504;-80
2022/12/01 06:25:23;;;;;;;69.53;24.90;;;;;;;;;;5041482;28;20293;-81
2022/12/01 06:27:48;;;;;;;69.00;27.07;;;;;;;;;;5064539;28;20169;-85
2022/12/01 06:30:14;;;;;;;68.73;25.40;;;;;;;;;;5038716;28;20265;-81
2022/12/01 06:32:39;;;;;;;69.30;24.87;;;;;;;;;;5064722;28;20166;-81
2022/12/01 06:35:04;;;;;;;65.67;25.00;;;;;;;;;;5065422;28;20248;-81
2022/12/01 06:37:29;;;;;;;76.33;26.03;;;;;;;;;;5065702;28;20177;-81
2022/12/01 06:39:55;;;;;;;72.40;22.90;;;;;;;;;;5066589;28;20173;-81
2022/12/01 06:42:20;;;;;;;76.23;25.53;;;;;;;;;;5062472;28;20180;-81
2022/12/01 06:44:45;;;;;;;65.57;25.80;;;;;;;;;;5042430;28;20695;-81
2022/12/01 06:47:10;;;;;;;71.23;26.50;;;;;;;;;;5047133;28;20658;-80
2022/12/01 06:49:36;;;;;;;74.97;24.47;;;;;;;;;;5057365;28;20193;-81
2022/12/01 06:52:02;;;;;;;71.90;24.57;;;;;;;;;;5047105;28;20617;-81
2022/12/01 06:54:27;;;;;;;79.63;26.80;;;;;;;;;;5047809;28;20239;-81
2022/12/01 06:56:52;;;;;;;63.90;24.90;;;;;;;;;;5065688;28;20193;-81
2022/12/01 06:59:18;;;;;;;76.40;26.33;;;;;;;;;;5058015;28;20237;-81
2022/12/01 07:01:44;;;;;;;77.50;26.80;;;;;;;;;;5053260;28;20633;-83
2022/12/01 07:04:09;;;;;;;70.47;25.13;;;;;;;;;;5063917;28;20233;-82
2022/12/01 07:06:34;;;;;;;69.33;24.57;;;;;;;;;;5040410;28;20231;-80
2022/12/01 07:08:59;;;;;;;66.13;25.10;;;;;;;;;;5056525;28;20182;-81
2022/12/01 07:11:24;;;;;;;76.33;26.03;;;;;;;;;;5036391;28;20610;-80
2022/12/01 07:13:53;;;;;;;73.83;27.73;;;;;;;;;;5059514;28;20746;-80
2022/12/01 07:16:19;;;;;;;81.43;26.00;;;;;;;;;;5061723;28;20185;-80
2022/12/01 07:18:44;;;;;;;83.27;28.00;;;;;;;;;;5061719;28;20211;-80
2022/12/01 07:21:11;;;;;;;77.13;28.17;;;;;;;;;;5045003;28;20182;-79
2022/12/01 07:23:36;;;;;;;82.77;27.87;;;;;;;;;;5044249;28;20230;-79
2022/12/01 07:26:02;;;;;;;70.80;25.90;;;;;;;;;;5044778;28;20197;-81
2022/12/01 07:28:28;;;;;;;76.07;27.43;;;;;;;;;;5040397;28;20181;-80
2022/12/01 07:30:53;;;;;;;71.37;27.13;;;;;;;;;;5060373;28;20496;-83
2022/12/01 07:33:18;;;;;;;78.43;25.77;;;;;;;;;;5060694;28;20194;-80
2022/12/01 07:35:43;;;;;;;76.57;27.57;;;;;;;;;;5065751;22;20233;-72
2022/12/01 07:38:09;;;;;;;82.67;28.53;;;;;;;;;;5051616;28;20261;-73
2022/12/01 07:40:34;;;;;;;70.90;25.57;;;;;;;;;;5051778;28;20180;-72
2022/12/01 07:42:59;;;;;;;84.50;27.70;;;;;;;;;;5045304;28;20170;-72
2022/12/01 07:45:24;;;;;;;81.80;26.10;;;;;;;;;;5050179;28;20193;-72
2022/12/01 07:47:53;;;;;;;85.80;27.63;;;;;;;;;;5054052;28;20176;-72
2022/12/01 07:50:18;;;;;;;93.80;28.90;;;;;;;;;;5037233;28;20683;-73
2022/12/01 07:52:43;;;;;;;92.07;30.83;;;;;;;;;;5054235;28;20181;-73
2022/12/01 07:55:08;;;;;;;84.47;28.73;;;;;;;;;;5049030;28;20687;-72
2022/12/01 07:57:34;;;;;;;90.80;28.70;;;;;;;;;;5051451;28;20244;-72
2022/12/01 07:59:59;;;;;;;87.87;28.07;;;;;;;;;;5050035;28;20275;-72
2022/12/01 08:02:24;;;;;;;89.93;27.53;;;;;;;;;;5041429;28;20438;-72
2022/12/01 08:04:49;;;;;;;93.43;29.23;;;;;;;;;;5051299;28;20204;-72
2022/12/01 08:07:14;;;;;;;89.73;28.80;;;;;;;;;;5035740;28;20216;-73
2022/12/01 08:09:40;;;;;;;87.60;29.03;;;;;;;;;;5045828;28;20271;-72
2022/12/01 08:12:05;;;;;;;74.77;28.33;;;;;;;;;;5048213;28;20165;-73
2022/12/01 08:14:30;;;;;;;105.97;31.23;;;;;;;;;;5025672;28;20200;-73
2022/12/01 08:16:55;;;;;;;101.70;31.13;;;;;;;;;;5031679;28;20188;-72
2022/12/01 08:19:21;;;;;;;97.03;29.67;;;;;;;;;;5043776;28;20178;-72
2022/12/01 08:21:46;;;;;;;95.80;29.50;;;;;;;;;;5050553;28;20252;-73
2022/12/01 08:24:11;;;;;;;96.03;29.80;;;;;;;;;;5045509;28;20189;-73
2022/12/01 08:26:36;;;;;;;85.00;28.87;;;;;;;;;;5031981;28;20260;-72
2022/12/01 08:29:02;;;;;;;99.70;30.73;;;;;;;;;;5050594;28;20239;-73
2022/12/01 08:31:29;;;;;;;99.13;31.33;;;;;;;;;;5046487;28;20668;-73
2022/12/01 08:33:54;;;;;;;88.47;30.77;;;;;;;;;;5050296;28;20190;-74
2022/12/01 08:36:20;;;;;;;104.70;34.23;;;;;;;;;;5052725;28;20281;-74
2022/12/01 08:38:46;;;;;;;106.93;31.93;;;;;;;;;;5051410;28;20621;-74
2022/12/01 08:41:12;;;;;;;113.33;32.90;;;;;;;;;;5048023;28;20186;-74
2022/12/01 08:43:39;;;;;;;107.43;31.27;;;;;;;;;;5049210;28;20189;-72
2022/12/01 08:46:04;;;;;;;103.87;30.87;;;;;;;;;;5026687;28;20569;-73
2022/12/01 08:48:29;;;;;;;109.93;32.23;;;;;;;;;;5050745;28;20174;-73
2022/12/01 08:51:06;;;;;;;105.87;32.33;;;;;;;;;;5031465;28;20178;-73
2022/12/01 08:53:32;;;;;;;92.70;32.07;;;;;;;;;;5050633;28;20181;-73
2022/12/01 08:55:58;;;;;;;102.83;31.47;;;;;;;;;;5042919;28;20208;-73
2022/12/01 08:58:23;;;;;;;104.30;32.57;;;;;;;;;;5049035;28;20271;-73
2022/12/01 09:00:48;;;;;;;120.40;34.53;;;;;;;;;;5049062;28;20186;-73
2022/12/01 09:03:13;;;;;;;107.27;35.30;;;;;;;;;;5051967;28;20177;-73
2022/12/01 09:05:39;;;;;;;125.27;36.73;;;;;;;;;;5054648;28;20189;-73
2022/12/01 09:10:51;;;;;;;104.70;33.13;;;;;;;;;;5049904;28;20306;-73
2022/12/01 09:13:16;;;;;;;119.30;36.13;;;;;;;;;;5051084;28;20671;-73
2022/12/01 09:15:42;;;;;;;112.10;35.60;;;;;;;;;;5054099;28;20208;-73
2022/12/01 09:18:07;;;;;;;105.13;33.73;;;;;;;;;;5050908;28;20193;-73
2022/12/01 09:20:32;;;;;;;108.50;32.30;;;;;;;;;;5054271;28;20190;-73
2022/12/01 09:22:57;;;;;;;102.27;33.20;;;;;;;;;;5053758;28;20194;-73
2022/12/01 09:25:22;;;;;;;108.70;37.20;;;;;;;;;;5034206;28;20197;-73
2022/12/01 09:27:47;;;;;;;118.87;36.97;;;;;;;;;;5054456;28;20244;-74
2022/12/01 09:30:13;;;;;;;113.83;35.27;;;;;;;;;;5054197;28;20174;-73
2022/12/01 09:32:38;;;;;;;105.50;34.23;;;;;;;;;;5052537;28;20178;-73
2022/12/01 09:35:03;;;;;;;99.97;32.97;;;;;;;;;;5035985;28;20209;-73
2022/12/01 09:37:28;;;;;;;93.60;33.57;;;;;;;;;;5054018;28;20743;-73
2022/12/01 09:39:54;;;;;;;112.73;33.57;;;;;;;;;;5052763;28;20668;-73
2022/12/01 09:42:26;;;;;;;114.67;34.57;;;;;;;;;;5053372;28;20189;-73
2022/12/01 09:44:52;;;;;;;108.10;35.77;;;;;;;;;;5036181;28;20243;-73
2022/12/01 09:47:36;;;;;;;109.67;36.27;;;;;;;;;;5036403;28;20694;-73
2022/12/01 09:50:03;;;;;;;105.83;36.43;;;;;;;;;;5053815;28;20257;-73
2022/12/01 09:52:32;;;;;;;95.77;35.97;;;;;;;;;;5050227;28;20182;-73
2022/12/01 09:54:59;;;;;;;103.20;37.80;;;;;;;;;;5053247;28;20602;-73
2022/12/01 09:57:32;;;;;;;94.27;34.97;;;;;;;;;;5050653;28;20189;-73
2022/12/01 09:59:58;;;;;;;96.83;34.80;;;;;;;;;;5052688;28;20717;-73
2022/12/01 10:02:23;;;;;;;96.13;35.43;;;;;;;;;;5044873;28;20198;-73
2022/12/01 10:04:50;;;;;;;94.57;36.13;;;;;;;;;;5052514;28;20284;-73
2022/12/01 10:07:18;;;;;;;87.47;36.73;;;;;;;;;;5052192;28;20212;-73
2022/12/01 10:10:02;;;;;;;83.57;35.00;;;;;;;;;;5049364;28;20178;-73
2022/12/01 10:12:31;;;;;;;82.13;33.50;;;;;;;;;;5052104;28;20617;-73
2022/12/01 10:15:12;;;;;;;70.83;33.07;;;;;;;;;;5048022;28;20197;-74
2022/12/01 10:17:40;;;;;;;74.47;31.03;;;;;;;;;;5049600;28;20183;-73
2022/12/01 10:20:21;;;;;;;53.23;26.97;;;;;;;;;;5052196;28;20186;-73
2022/12/01 10:22:52;;;;;;;52.93;27.37;;;;;;;;;;5051792;28;20231;-73
2022/12/01 10:25:22;;;;;;;47.03;24.83;;;;;;;;;;5034968;28;20197;-74
2022/12/01 10:28:07;;;;;;;48.50;25.70;;;;;;;;;;5053153;28;20576;-73
2022/12/01 10:30:38;;;;;;;45.13;23.00;;;;;;;;;;5019508;28;20196;-73
2022/12/01 10:33:32;;;;;;;45.83;23.97;;;;;;;;;;5047327;28;20555;-73
2022/12/01 10:35:57;;;;;;;43.07;23.50;;;;;;;;;;5034775;28;20790;-73
2022/12/01 10:38:25;;;;;;;40.70;23.07;;;;;;;;;;5053039;28;20169;-74
2022/12/01 10:40:52;;;;;;;41.60;21.35;;;;;;;;;;5051962;28;20197;-73
2022/12/01 10:43:17;;;;;;;45.30;24.92;;;;;;;;;;5053087;28;20188;-73
2022/12/01 10:45:43;;;;;;;37.20;21.45;;;;;;;;;;5047032;28;20197;-73
2022/12/01 10:48:14;;;;;;;38.33;22.65;;;;;;;;;;5033484;28;20230;-73
2022/12/01 10:50:44;;;;;;;43.47;24.75;;;;;;;;;;5052138;28;20180;-73
2022/12/01 10:53:25;;;;;;;39.38;22.50;;;;;;;;;;5052826;28;20181;-73
2022/12/01 10:55:57;;;;;;;36.15;23.15;;;;;;;;;;5047509;28;20243;-73
2022/12/01 10:58:22;;;;;;;41.40;22.83;;;;;;;;;;5045958;28;20210;-73
2022/12/01 11:00:54;;;;;;;41.47;23.13;;;;;;;;;;5045896;28;20693;-73
2022/12/01 11:03:21;;;;;;;43.03;23.10;;;;;;;;;;5036236;28;20172;-73
2022/12/01 11:05:51;;;;;;;43.93;23.47;;;;;;;;;;5045913;28;20768;-73
2022/12/01 11:08:38;;;;;;;40.80;22.17;;;;;;;;;;5051696;28;20181;-72
2022/12/01 11:11:04;;;;;;;39.57;22.87;;;;;;;;;;5027035;28;20588;-72
2022/12/01 11:13:30;;;;;;;36.13;21.57;;;;;;;;;;5047464;28;20173;-73
2022/12/01 11:15:57;;;;;;;39.47;22.17;;;;;;;;;;5052230;28;20220;-73
2022/12/01 11:18:27;;;;;;;41.67;23.13;;;;;;;;;;5037097;28;20186;-72
2022/12/01 11:21:04;;;;;;;42.20;21.37;;;;;;;;;;5030488;28;20173;-72
2022/12/01 11:23:29;;;;;;;39.07;20.97;;;;;;;;;;5052255;28;20195;-72
2022/12/01 11:25:56;;;;;;;38.63;21.27;;;;;;;;;;5051234;28;20273;-73
2022/12/01 11:28:22;;;;;;;37.37;20.07;;;;;;;;;;5052127;28;20265;-72
2022/12/01 11:30:53;;;;;;;37.80;21.00;;;;;;;;;;5051013;28;20640;-73
2022/12/01 11:33:18;;;;;;;37.37;20.10;;;;;;;;;;5051072;28;20197;-72
2022/12/01 11:35:46;;;;;;;37.93;19.93;;;;;;;;;;5051605;28;20255;-72
2022/12/01 11:38:18;;;;;;;34.93;20.47;;;;;;;;;;5048186;28;20178;-72
2022/12/01 11:40:47;;;;;;;36.23;19.10;;;;;;;;;;5043177;28;20501;-72
2022/12/01 11:43:33;;;;;;;34.40;19.97;;;;;;;;;;5046731;28;20179;-73
2022/12/01 11:45:59;;;;;;;33.40;17.70;;;;;;;;;;5044738;28;20757;-72
2022/12/01 11:48:29;;;;;;;31.97;18.63;;;;;;;;;;5031081;28;20185;-72
2022/12/01 11:51:01;;;;;;;33.30;18.63;;;;;;;;;;5050000;28;20790;-73
2022/12/01 11:53:27;;;;;;;39.23;19.07;;;;;;;;;;5051771;28;20188;-72
2022/12/01 11:56:11;;;;;;;40.67;20.90;;;;;;;;;;5048849;28;20185;-73
2022/12/01 11:58:37;;;;;;;31.00;18.47;;;;;;;;;;5048813;28;21737;-73
2022/12/01 12:01:03;;;;;;;29.87;17.80;;;;;;;;;;5045570;28;20201;-73
2022/12/01 12:03:33;;;;;;;33.33;19.27;;;;;;;;;;5051233;28;20186;-73
2022/12/01 12:06:01;;;;;;;29.93;17.67;;;;;;;;;;5045872;28;20209;-73
2022/12/01 12:08:44;;;;;;;31.70;18.58;;;;;;;;;;5047303;28;20180;-73
2022/12/01 12:11:18;;;;;;;32.05;20.08;;;;;;;;;;5050758;28;20174;-73
2022/12/01 12:13:53;;;;;;;32.45;19.20;;;;;;;;;;5026897;28;20184;-73
2022/12/01 12:16:21;;;;;;;29.65;18.92;;;;;;;;;;5048978;28;20177;-73
2022/12/01 12:19:05;;;;;;;31.65;17.90;;;;;;;;;;5034015;28;20186;-73
2022/12/01 12:21:37;;;;;;;30.88;18.50;;;;;;;;;;5048702;28;20256;-72
2022/12/01 12:24:08;;;;;;;29.65;18.27;;;;;;;;;;5051601;28;20260;-73
2022/12/01 12:26:52;;;;;;;28.42;17.05;;;;;;;;;;5045676;28;20215;-72
2022/12/01 12:29:32;;;;;;;30.88;18.02;;;;;;;;;;5051147;28;20184;-72
2022/12/01 12:32:09;;;;;;;30.63;18.13;;;;;;;;;;5048366;28;20188;-72
2022/12/01 12:34:34;;;;;;;28.95;18.00;;;;;;;;;;5046347;28;20763;-73
2022/12/01 12:36:59;;;;;;;28.20;16.63;;;;;;;;;;5040276;28;20327;-73
2022/12/01 12:39:36;;;;;;;29.53;16.70;;;;;;;;;;5049377;28;20181;-73
2022/12/01 12:42:04;;;;;;;27.73;17.35;;;;;;;;;;5055202;28;20416;-73
2022/12/01 12:44:38;;;;;;;31.27;18.95;;;;;;;;;;5054613;28;20212;-73
2022/12/01 12:47:42;;;;;;;30.40;18.88;;;;;;;;;;5037983;28;20193;-73
2022/12/01 12:50:18;;;;;;;30.42;17.00;;;;;;;;;;4989673;28;20299;-73
2022/12/01 12:52:48;;;;;;;30.20;17.10;;;;;;;;;;4989315;28;20179;-72
2022/12/01 12:55:22;;;;;;;27.50;18.90;;;;;;;;;;5019690;28;20242;-73
2022/12/01 12:57:50;;;;;;;28.80;18.27;;;;;;;;;;5049792;28;20562;-72
2022/12/01 13:00:18;;;;;;;30.17;17.47;;;;;;;;;;5031968;28;20178;-73
2022/12/01 13:02:46;;;;;;;31.93;17.37;;;;;;;;;;5054145;28;20279;-73
2022/12/01 13:05:17;;;;;;;34.77;18.70;;;;;;;;;;5055041;28;20330;-72
2022/12/01 13:07:46;;;;;;;31.00;18.13;;;;;;;;;;5041205;28;20173;-72
2022/12/01 13:10:21;;;;;;;32.27;18.03;;;;;;;;;;5055145;28;20174;-73
2022/12/01 13:12:52;;;;;;;30.50;17.97;;;;;;;;;;5049671;28;20265;-72
2022/12/01 13:15:18;;;;;;;29.47;18.63;;;;;;;;;;5033759;28;20202;-73
2022/12/01 13:17:46;;;;;;;30.07;18.23;;;;;;;;;;5047365;28;20170;-72
2022/12/01 13:20:16;;;;;;;31.73;17.80;;;;;;;;;;5055326;28;20177;-72
2022/12/01 13:22:42;;;;;;;31.23;18.60;;;;;;;;;;5054501;28;20589;-73
2022/12/01 13:25:11;;;;;;;27.67;17.37;;;;;;;;;;5050086;28;20252;-73
2022/12/01 13:27:39;;;;;;;31.53;17.87;;;;;;;;;;5054456;28;20205;-72
2022/12/01 13:30:04;;;;;;;29.33;16.67;;;;;;;;;;5044701;28;20651;-73
2022/12/01 13:32:36;;;;;;;28.40;17.00;;;;;;;;;;5035650;28;20172;-74
2022/12/01 13:35:22;;;;;;;33.97;18.63;;;;;;;;;;5063594;22;20252;-82
2022/12/01 13:37:47;;;;;;;30.47;17.30;;;;;;;;;;5039483;28;20255;-81
2022/12/01 13:40:21;;;;;;;30.73;18.33;;;;;;;;;;5054221;28;20640;-81
2022/12/01 13:43:03;;;;;;;35.87;18.23;;;;;;;;;;5059945;28;20272;-81
2022/12/01 13:45:31;;;;;;;28.30;16.73;;;;;;;;;;5051325;28;20682;-81
2022/12/01 13:47:58;;;;;;;28.43;16.50;;;;;;;;;;5054974;28;20565;-80
2022/12/01 13:50:41;;;;;;;28.37;16.80;;;;;;;;;;5042074;28;20185;-80
2022/12/01 13:53:10;;;;;;;26.80;15.73;;;;;;;;;;5053922;28;20737;-82
2022/12/01 13:55:51;;;;;;;31.47;18.43;;;;;;;;;;5040628;28;20194;-82
2022/12/01 13:58:20;;;;;;;29.63;16.90;;;;;;;;;;5056621;28;20181;-81
2022/12/01 14:00:46;;;;;;;31.47;18.17;;;;;;;;;;5054529;28;20685;-81
2022/12/01 14:03:11;;;;;;;29.73;16.53;;;;;;;;;;5062219;28;20255;-81
2022/12/01 14:05:52;;;;;;;25.70;15.77;;;;;;;;;;5061221;28;20932;-81
2022/12/01 14:08:34;;;;;;;28.97;16.00;;;;;;;;;;5056480;28;20184;-81
2022/12/01 14:11:02;;;;;;;29.20;16.37;;;;;;;;;;5059939;28;20531;-81
2022/12/01 14:13:27;;;;;;;29.00;16.83;;;;;;;;;;5062768;28;20180;-81
2022/12/01 14:15:57;;;;;;;31.93;16.87;;;;;;;;;;5038379;28;20198;-79
2022/12/01 14:18:36;;;;;;;29.17;15.60;;;;;;;;;;5056871;28;20254;-80
2022/12/01 14:21:03;;;;;;;28.83;16.87;;;;;;;;;;5057566;28;20177;-82
2022/12/01 14:23:32;;;;;;;26.20;16.03;;;;;;;;;;5059983;28;20182;-79
2022/12/01 14:26:11;;;;;;;25.83;16.63;;;;;;;;;;5056293;28;20675;-81
2022/12/01 14:28:55;;;;;;;25.63;15.80;;;;;;;;;;5040418;28;20178;-81
2022/12/01 14:31:43;;;;;;;26.30;15.43;;;;;;;;;;5036492;28;20193;-82